sensor_id;sensor_type;location;lat;lon;timestamp;pressure;altitude;pressure_sealevel;temperature;humidity
45864;BME280;31579;52.354;16.974;2023-02-28T00:00:11;-133.2;;;-146.1;100.0
45864;BME280;31579;52.354;16.974;2023-02-28T00:01:14;-133.2;;;-146.1;100.0
45864;BME280;31579;52.354;16.974;2023-02-28T00:02:18;-132.5;;;-146.1;100.0
45864;BME280;31579;52.354;16.974;2023-02-28T00:03:20;-132.8;;;-146.1;100.0
45864;BME280;31579;52.354;16.974;2023-02-28T00:04:24;-132.8;;;-146.1;100.0
45864;BME280;31579;52.354;16.974;2023-02-28T00:05:27;-132.9;;;-146.1;100.0
45864;BME280;31579;52.354;16.974;2023-02-28T00:06:29;-132.9;;;-146.1;100.0
45864;BME280;31579;52.354;16.974;2023-02-28T00:07:33;-133.0;;;-146.1;100.0
45864;BME280;31579;52.354;16.974;2023-02-28T00:08:36;-133.2;;;-146.1;100.0
45864;BME280;31579;52.354;16.974;2023-02-28T00:09:38;-133.2;;;-146.1;100.0
45864;BME280;31579;52.354;16.974;2023-02-28T00:10:41;-133.3;;;-146.1;100.0
45864;BME280;31579;52.354;16.974;2023-02-28T00:11:44;-133.5;;;-146.1;100.0
45864;BME280;31579;52.354;16.974;2023-02-28T00:12:48;-133.5;;;-146.1;100.0
45864;BME280;31579;52.354;16.974;2023-02-28T00:13:51;-133.6;;;-146.1;100.0
45864;BME280;31579;52.354;16.974;2023-02-28T00:14:53;-133.6;;;-146.1;100.0
45864;BME280;31579;52.354;16.974;2023-02-28T00:16:02;-133.8;;;-146.1;100.0
45864;BME280;31579;52.354;16.974;2023-02-28T00:16:59;-133.9;;;-146.1;100.0
45864;BME280;31579;52.354;16.974;2023-02-28T00:18:03;-134.0;;;-146.1;100.0
45864;BME280;31579;52.354;16.974;2023-02-28T00:19:05;-134.2;;;-146.1;100.0
45864;BME280;31579;52.354;16.974;2023-02-28T00:20:09;-134.3;;;-146.1;100.0
45864;BME280;31579;52.354;16.974;2023-02-28T00:21:13;-134.4;;;-146.1;100.0
45864;BME280;31579;52.354;16.974;2023-02-28T00:22:16;-134.6;;;-146.1;100.0
45864;BME280;31579;52.354;16.974;2023-02-28T00:23:18;-134.7;;;-146.1;100.0
45864;BME280;31579;52.354;16.974;2023-02-28T00:24:21;-134.8;;;-146.1;100.0
45864;BME280;31579;52.354;16.974;2023-02-28T00:25:26;-134.8;;;-146.1;100.0
45864;BME280;31579;52.354;16.974;2023-02-28T00:26:28;-134.8;;;-146.1;100.0
45864;BME280;31579;52.354;16.974;2023-02-28T00:27:32;-134.8;;;-146.1;100.0
45864;BME280;31579;52.354;16.974;2023-02-28T00:28:34;-134.8;;;-146.1;100.0
45864;BME280;31579;52.354;16.974;2023-02-28T00:29:38;-134.8;;;-146.1;100.0
45864;BME280;31579;52.354;16.974;2023-02-28T00:30:41;-135.0;;;-146.1;100.0
45864;BME280;31579;52.354;16.974;2023-02-28T00:31:43;-135.1;;;-146.1;100.0
45864;BME280;31579;52.354;16.974;2023-02-28T00:32:47;-135.2;;;-146.1;100.0
45864;BME280;31579;52.354;16.974;2023-02-28T00:33:49;-135.4;;;-146.1;100.0
45864;BME280;31579;52.354;16.974;2023-02-28T00:34:54;-135.4;;;-146.1;100.0
45864;BME280;31579;52.354;16.974;2023-02-28T00:36:59;-135.2;;;-146.1;100.0
45864;BME280;31579;52.354;16.974;2023-02-28T00:38:03;-135.1;;;-146.1;100.0
45864;BME280;31579;52.354;16.974;2023-02-28T00:39:05;-135.1;;;-146.1;100.0
45864;BME280;31579;52.354;16.974;2023-02-28T00:40:09;-134.8;;;-146.1;100.0
45864;BME280;31579;52.354;16.974;2023-02-28T00:41:11;-134.6;;;-146.1;100.0
45864;BME280;31579;52.354;16.974;2023-02-28T00:42:16;-133.7;;;-146.1;100.0
45864;BME280;31579;52.354;16.974;2023-02-28T00:43:18;-133.7;;;-146.1;100.0
45864;BME280;31579;52.354;16.974;2023-02-28T00:44:21;-133.2;;;-146.1;100.0
45864;BME280;31579;52.354;16.974;2023-02-28T00:45:25;-132.7;;;-146.1;100.0
45864;BME280;31579;52.354;16.974;2023-02-28T00:46:27;-132.2;;;-146.1;100.0
45864;BME280;31579;52.354;16.974;2023-02-28T00:47:31;-131.9;;;-146.1;100.0
45864;BME280;31579;52.354;16.974;2023-02-28T00:48:34;-131.6;;;-146.1;100.0
45864;BME280;31579;52.354;16.974;2023-02-28T00:49:37;-131.6;;;-146.1;100.0
45864;BME280;31579;52.354;16.974;2023-02-28T00:50:39;-131.4;;;-146.1;100.0
45864;BME280;31579;52.354;16.974;2023-02-28T00:51:42;-131.3;;;-146.1;100.0
45864;BME280;31579;52.354;16.974;2023-02-28T00:52:46;-131.0;;;-146.1;100.0
45864;BME280;31579;52.354;16.974;2023-02-28T00:53:48;-130.5;;;-146.1;100.0
45864;BME280;31579;52.354;16.974;2023-02-28T00:54:52;-130.1;;;-146.1;100.0
45864;BME280;31579;52.354;16.974;2023-02-28T00:55:55;-129.8;;;-146.1;100.0
45864;BME280;31579;52.354;16.974;2023-02-28T00:56:59;-129.5;;;-146.1;100.0
45864;BME280;31579;52.354;16.974;2023-02-28T00:58:01;-130.2;;;-146.1;100.0
45864;BME280;31579;52.354;16.974;2023-02-28T00:59:05;-129.7;;;-146.1;100.0
45864;BME280;31579;52.354;16.974;2023-02-28T01:00:08;-129.7;;;-146.1;100.0
45864;BME280;31579;52.354;16.974;2023-02-28T01:01:11;-129.8;;;-146.1;100.0
45864;BME280;31579;52.354;16.974;2023-02-28T01:02:14;-130.0;;;-146.1;100.0
45864;BME280;31579;52.354;16.974;2023-02-28T01:03:17;-130.0;;;-146.1;100.0
45864;BME280;31579;52.354;16.974;2023-02-28T01:04:21;-130.1;;;-146.1;100.0
45864;BME280;31579;52.354;16.974;2023-02-28T01:05:24;-130.3;;;-146.1;100.0
45864;BME280;31579;52.354;16.974;2023-02-28T01:06:27;-130.4;;;-146.1;100.0
45864;BME280;31579;52.354;16.974;2023-02-28T01:07:30;-130.5;;;-146.1;100.0
45864;BME280;31579;52.354;16.974;2023-02-28T01:08:33;-130.4;;;-146.1;100.0
45864;BME280;31579;52.354;16.974;2023-02-28T01:09:36;-130.4;;;-146.1;100.0
45864;BME280;31579;52.354;16.974;2023-02-28T01:10:39;-130.5;;;-146.1;100.0
45864;BME280;31579;52.354;16.974;2023-02-28T01:11:42;-130.7;;;-146.1;100.0
45864;BME280;31579;52.354;16.974;2023-02-28T01:12:45;-130.9;;;-146.1;100.0
45864;BME280;31579;52.354;16.974;2023-02-28T01:13:48;-131.3;;;-146.1;100.0
45864;BME280;31579;52.354;16.974;2023-02-28T01:14:51;-131.6;;;-146.1;100.0
45864;BME280;31579;52.354;16.974;2023-02-28T01:15:55;-131.9;;;-146.1;100.0
45864;BME280;31579;52.354;16.974;2023-02-28T01:16:57;-132.2;;;-146.1;100.0
45864;BME280;31579;52.354;16.974;2023-02-28T01:18:00;-132.3;;;-146.1;100.0
45864;BME280;31579;52.354;16.974;2023-02-28T01:19:11;-130.9;;;-146.1;100.0
45864;BME280;31579;52.354;16.974;2023-02-28T01:20:14;-131.6;;;-146.1;100.0
45864;BME280;31579;52.354;16.974;2023-02-28T01:21:17;-132.2;;;-146.1;100.0
45864;BME280;31579;52.354;16.974;2023-02-28T01:22:20;-132.6;;;-146.1;100.0
45864;BME280;31579;52.354;16.974;2023-02-28T01:23:23;-133.1;;;-146.1;100.0
45864;BME280;31579;52.354;16.974;2023-02-28T01:24:27;-133.5;;;-146.1;100.0
45864;BME280;31579;52.354;16.974;2023-02-28T01:25:30;-133.8;;;-146.1;100.0
45864;BME280;31579;52.354;16.974;2023-02-28T01:26:33;-134.1;;;-146.1;100.0
45864;BME280;31579;52.354;16.974;2023-02-28T01:27:36;-134.4;;;-146.1;100.0
45864;BME280;31579;52.354;16.974;2023-02-28T01:28:39;-134.8;;;-146.1;100.0
45864;BME280;31579;52.354;16.974;2023-02-28T01:29:42;-135.1;;;-146.1;100.0
45864;BME280;31579;52.354;16.974;2023-02-28T01:30:47;-135.4;;;-146.1;100.0
45864;BME280;31579;52.354;16.974;2023-02-28T01:31:48;-135.8;;;-146.1;100.0
45864;BME280;31579;52.354;16.974;2023-02-28T01:32:51;-136.0;;;-146.1;100.0
45864;BME280;31579;52.354;16.974;2023-02-28T01:33:54;-136.2;;;-146.1;100.0
45864;BME280;31579;52.354;16.974;2023-02-28T01:34:58;-136.4;;;-146.1;100.0
45864;BME280;31579;52.354;16.974;2023-02-28T01:36:03;-136.0;;;-146.1;100.0
45864;BME280;31579;52.354;16.974;2023-02-28T01:37:05;-136.0;;;-146.1;100.0
45864;BME280;31579;52.354;16.974;2023-02-28T01:38:09;-135.6;;;-146.1;100.0
45864;BME280;31579;52.354;16.974;2023-02-28T01:39:12;-135.8;;;-146.1;100.0
45864;BME280;31579;52.354;16.974;2023-02-28T01:40:15;-136.1;;;-146.1;100.0
45864;BME280;31579;52.354;16.974;2023-02-28T01:41:20;-136.4;;;-146.1;100.0
45864;BME280;31579;52.354;16.974;2023-02-28T01:42:22;-136.8;;;-146.1;100.0
45864;BME280;31579;52.354;16.974;2023-02-28T01:43:28;-137.0;;;-146.1;100.0
45864;BME280;31579;52.354;16.974;2023-02-28T01:45:31;-137.1;;;-146.1;100.0
45864;BME280;31579;52.354;16.974;2023-02-28T01:46:35;-136.9;;;-146.1;100.0
45864;BME280;31579;52.354;16.974;2023-02-28T01:47:38;-136.8;;;-146.1;100.0
45864;BME280;31579;52.354;16.974;2023-02-28T01:48:49;-139.2;;;-146.1;100.0
45864;BME280;31579;52.354;16.974;2023-02-28T01:49:51;-132.2;;;-146.1;100.0
45864;BME280;31579;52.354;16.974;2023-02-28T01:50:54;-131.2;;;-146.1;100.0
45864;BME280;31579;52.354;16.974;2023-02-28T01:51:57;-131.6;;;-146.1;100.0
45864;BME280;31579;52.354;16.974;2023-02-28T01:53:04;-138.0;;;-146.1;100.0
45864;BME280;31579;52.354;16.974;2023-02-28T01:54:07;-130.1;;;-146.1;100.0
45864;BME280;31579;52.354;16.974;2023-02-28T01:55:08;-129.4;;;-146.1;100.0
45864;BME280;31579;52.354;16.974;2023-02-28T01:56:12;-129.3;;;-146.1;100.0
45864;BME280;31579;52.354;16.974;2023-02-28T01:57:14;-129.0;;;-146.1;100.0
45864;BME280;31579;52.354;16.974;2023-02-28T01:58:17;-128.7;;;-146.1;100.0
45864;BME280;31579;52.354;16.974;2023-02-28T01:59:23;-128.4;;;-146.1;100.0
45864;BME280;31579;52.354;16.974;2023-02-28T02:00:23;-127.6;;;-146.1;100.0
45864;BME280;31579;52.354;16.974;2023-02-28T02:01:26;-127.1;;;-146.1;100.0
45864;BME280;31579;52.354;16.974;2023-02-28T02:02:29;-126.9;;;-146.1;100.0
45864;BME280;31579;52.354;16.974;2023-02-28T02:03:32;-126.9;;;-146.1;100.0
45864;BME280;31579;52.354;16.974;2023-02-28T02:05:39;-126.9;;;-146.1;100.0
45864;BME280;31579;52.354;16.974;2023-02-28T02:06:42;-126.5;;;-146.1;100.0
45864;BME280;31579;52.354;16.974;2023-02-28T02:07:45;-126.3;;;-146.1;100.0
45864;BME280;31579;52.354;16.974;2023-02-28T02:08:48;-126.0;;;-146.1;100.0
45864;BME280;31579;52.354;16.974;2023-02-28T02:09:58;-124.5;;;-146.1;100.0
45864;BME280;31579;52.354;16.974;2023-02-28T02:10:56;-123.3;;;-146.1;100.0
45864;BME280;31579;52.354;16.974;2023-02-28T02:11:58;-122.9;;;-146.1;100.0
45864;BME280;31579;52.354;16.974;2023-02-28T02:15:16;-100.7;;;-146.1;100.0
45864;BME280;31579;52.354;16.974;2023-02-28T02:19:40;-107.8;;;-146.1;100.0
45864;BME280;31579;52.354;16.974;2023-02-28T02:25:52;-108.0;;;-146.1;100.0
45864;BME280;31579;52.354;16.974;2023-02-28T02:36:42;-61.1;;;-146.1;100.0
45864;BME280;31579;52.354;16.974;2023-02-28T02:41:54;-73.1;;;-146.1;100.0
45864;BME280;31579;52.354;16.974;2023-02-28T02:44:04;-87.5;;;-146.1;100.0
45864;BME280;31579;52.354;16.974;2023-02-28T02:45:07;-68.9;;;-146.1;100.0
45864;BME280;31579;52.354;16.974;2023-02-28T02:46:10;-68.0;;;-146.1;100.0
45864;BME280;31579;52.354;16.974;2023-02-28T02:47:11;-70.3;;;-146.1;100.0
45864;BME280;31579;52.354;16.974;2023-02-28T02:48:15;-72.9;;;-146.1;100.0
45864;BME280;31579;52.354;16.974;2023-02-28T02:49:23;-73.8;;;-146.1;100.0
45864;BME280;31579;52.354;16.974;2023-02-28T02:50:22;-73.2;;;-146.1;100.0
45864;BME280;31579;52.354;16.974;2023-02-28T02:51:22;-72.7;;;-146.1;100.0
45864;BME280;31579;52.354;16.974;2023-02-28T02:52:29;-72.4;;;-146.1;100.0
45864;BME280;31579;52.354;16.974;2023-02-28T02:53:29;-71.6;;;-146.1;100.0
45864;BME280;31579;52.354;16.974;2023-02-28T02:54:33;-70.6;;;-146.1;100.0
45864;BME280;31579;52.354;16.974;2023-02-28T02:55:34;-69.8;;;-146.1;100.0
45864;BME280;31579;52.354;16.974;2023-02-28T02:56:37;-69.0;;;-146.1;100.0
45864;BME280;31579;52.354;16.974;2023-02-28T02:58:44;-67.2;;;-146.1;100.0
45864;BME280;31579;52.354;16.974;2023-02-28T02:59:47;-66.5;;;-146.1;100.0
45864;BME280;31579;52.354;16.974;2023-02-28T03:00:52;-65.7;;;-146.1;100.0
45864;BME280;31579;52.354;16.974;2023-02-28T03:01:55;-65.3;;;-146.1;100.0
45864;BME280;31579;52.354;16.974;2023-02-28T03:02:56;-64.1;;;-146.1;100.0
45864;BME280;31579;52.354;16.974;2023-02-28T03:04:01;-62.2;;;-146.1;100.0
45864;BME280;31579;52.354;16.974;2023-02-28T03:05:14;-88.1;;;-146.1;100.0
45864;BME280;31579;52.354;16.974;2023-02-28T03:06:14;-50.9;;;-146.1;100.0
45864;BME280;31579;52.354;16.974;2023-02-28T03:07:16;-49.7;;;-146.1;100.0
45864;BME280;31579;52.354;16.974;2023-02-28T03:08:19;-50.8;;;-146.1;100.0
45864;BME280;31579;52.354;16.974;2023-02-28T03:09:22;-52.3;;;-146.1;100.0
45864;BME280;31579;52.354;16.974;2023-02-28T03:10:27;-53.2;;;-146.1;100.0
45864;BME280;31579;52.354;16.974;2023-02-28T03:11:28;-53.7;;;-146.1;100.0
45864;BME280;31579;52.354;16.974;2023-02-28T03:12:33;-53.5;;;-146.1;100.0
45864;BME280;31579;52.354;16.974;2023-02-28T03:25:02;-23.8;;;-146.1;100.0
45864;BME280;31579;52.354;16.974;2023-02-28T03:26:20;-26.7;;;-146.1;100.0
45864;BME280;31579;52.354;16.974;2023-02-28T03:27:24;-29.9;;;-146.1;100.0
45864;BME280;31579;52.354;16.974;2023-02-28T03:32:35;-32.4;;;-146.1;100.0
45864;BME280;31579;52.354;16.974;2023-02-28T03:33:38;-32.6;;;-146.1;100.0
45864;BME280;31579;52.354;16.974;2023-02-28T03:34:39;-32.5;;;-146.1;100.0
45864;BME280;31579;52.354;16.974;2023-02-28T03:36:50;-31.9;;;-146.1;100.0
45864;BME280;31579;52.354;16.974;2023-02-28T03:37:48;-31.3;;;-146.1;100.0
45864;BME280;31579;52.354;16.974;2023-02-28T03:38:54;-33.6;;;-146.1;100.0
45864;BME280;31579;52.354;16.974;2023-02-28T03:39:56;-33.3;;;-146.1;100.0
45864;BME280;31579;52.354;16.974;2023-02-28T03:41:00;-32.3;;;-146.1;100.0
45864;BME280;31579;52.354;16.974;2023-02-28T03:42:01;-31.9;;;-146.1;100.0
45864;BME280;31579;52.354;16.974;2023-02-28T03:43:12;-90.8;;;-146.1;100.0
45864;BME280;31579;52.354;16.974;2023-02-28T03:44:15;-6.9;;;-146.1;100.0
45864;BME280;31579;52.354;16.974;2023-02-28T03:45:18;-7.5;;;-146.1;100.0
45864;BME280;31579;52.354;16.974;2023-02-28T03:46:20;-11.2;;;-146.1;100.0
45864;BME280;31579;52.354;16.974;2023-02-28T03:47:25;-13.8;;;-146.1;100.0
45864;BME280;31579;52.354;16.974;2023-02-28T03:48:30;-14.8;;;-146.1;100.0
45864;BME280;31579;52.354;16.974;2023-02-28T03:49:33;-15.8;;;-146.1;100.0
45864;BME280;31579;52.354;16.974;2023-02-28T03:51:35;-14.8;;;-146.1;100.0
45864;BME280;31579;52.354;16.974;2023-02-28T03:52:40;-14.2;;;-146.1;100.0
45864;BME280;31579;52.354;16.974;2023-02-28T03:53:42;-13.4;;;-146.1;100.0
45864;BME280;31579;52.354;16.974;2023-02-28T03:54:45;-12.5;;;-146.1;100.0
45864;BME280;31579;52.354;16.974;2023-02-28T03:55:48;-10.6;;;-146.1;100.0
45864;BME280;31579;52.354;16.974;2023-02-28T03:56:52;-9.5;;;-146.1;100.0
45864;BME280;31579;52.354;16.974;2023-02-28T03:58:58;-5.1;;;-146.1;100.0
45864;BME280;31579;52.354;16.974;2023-02-28T03:59:59;-2.2;;;-146.1;100.0
45864;BME280;31579;52.354;16.974;2023-02-28T04:01:05;25.1;;;-146.1;100.0
45864;BME280;31579;52.354;16.974;2023-02-28T04:02:05;-4.7;;;-146.1;100.0
45864;BME280;31579;52.354;16.974;2023-02-28T04:03:07;23.7;;;-146.1;100.0
45864;BME280;31579;52.354;16.974;2023-02-28T04:04:11;-8.2;;;-146.1;100.0
45864;BME280;31579;52.354;16.974;2023-02-28T04:05:14;-5.8;;;-146.1;100.0
45864;BME280;31579;52.354;16.974;2023-02-28T04:06:19;-1.1;;;-146.1;100.0
45864;BME280;31579;52.354;16.974;2023-02-28T04:07:21;2.5;;;-146.1;100.0
45864;BME280;31579;52.354;16.974;2023-02-28T04:08:24;5.9;;;-146.1;100.0
45864;BME280;31579;52.354;16.974;2023-02-28T04:09:27;9.0;;;-146.1;100.0
45864;BME280;31579;52.354;16.974;2023-02-28T04:10:30;11.8;;;-146.1;100.0
45864;BME280;31579;52.354;16.974;2023-02-28T04:12:36;15.7;;;-146.1;100.0
45864;BME280;31579;52.354;16.974;2023-02-28T04:13:39;16.6;;;-146.1;100.0
45864;BME280;31579;52.354;16.974;2023-02-28T04:14:42;18.3;;;-146.1;100.0
45864;BME280;31579;52.354;16.974;2023-02-28T04:15:45;20.0;;;-146.1;100.0
45864;BME280;31579;52.354;16.974;2023-02-28T04:16:48;21.8;;;-146.1;100.0
45864;BME280;31579;52.354;16.974;2023-02-28T04:17:51;23.1;;;-146.1;100.0
45864;BME280;31579;52.354;16.974;2023-02-28T04:18:54;24.2;;;-146.1;100.0
45864;BME280;31579;52.354;16.974;2023-02-28T04:19:57;25.0;;;-146.1;100.0
45864;BME280;31579;52.354;16.974;2023-02-28T04:21:00;26.6;;;-146.1;100.0
45864;BME280;31579;52.354;16.974;2023-02-28T04:22:03;27.3;;;-146.1;100.0
45864;BME280;31579;52.354;16.974;2023-02-28T04:23:06;28.3;;;-146.1;100.0
45864;BME280;31579;52.354;16.974;2023-02-28T04:24:11;29.0;;;-146.1;100.0
45864;BME280;31579;52.354;16.974;2023-02-28T04:25:13;29.3;;;-146.1;100.0
45864;BME280;31579;52.354;16.974;2023-02-28T04:26:16;30.6;;;-146.1;100.0
45864;BME280;31579;52.354;16.974;2023-02-28T04:27:19;31.5;;;-146.1;100.0
45864;BME280;31579;52.354;16.974;2023-02-28T04:28:22;32.6;;;-146.1;100.0
45864;BME280;31579;52.354;16.974;2023-02-28T04:29:26;33.8;;;-146.1;100.0
45864;BME280;31579;52.354;16.974;2023-02-28T04:30:28;35.5;;;-146.1;100.0
45864;BME280;31579;52.354;16.974;2023-02-28T04:31:31;36.5;;;-146.1;100.0
45864;BME280;31579;52.354;16.974;2023-02-28T04:32:34;37.6;;;-146.1;100.0
45864;BME280;31579;52.354;16.974;2023-02-28T04:33:37;39.2;;;-146.1;100.0
45864;BME280;31579;52.354;16.974;2023-02-28T04:34:40;41.4;;;-146.1;100.0
45864;BME280;31579;52.354;16.974;2023-02-28T04:35:43;42.7;;;-146.1;100.0
45864;BME280;31579;52.354;16.974;2023-02-28T04:36:46;43.3;;;-146.1;100.0
45864;BME280;31579;52.354;16.974;2023-02-28T04:37:49;44.2;;;-146.1;100.0
45864;BME280;31579;52.354;16.974;2023-02-28T04:38:52;45.3;;;-146.1;100.0
45864;BME280;31579;52.354;16.974;2023-02-28T04:39:55;46.1;;;-146.1;100.0
45864;BME280;31579;52.354;16.974;2023-02-28T04:40:58;47.7;;;-146.1;100.0
45864;BME280;31579;52.354;16.974;2023-02-28T04:42:02;13.1;;;-146.1;100.0
45864;BME280;31579;52.354;16.974;2023-02-28T04:43:05;52.8;;;-146.1;100.0
45864;BME280;31579;52.354;16.974;2023-02-28T04:44:09;57.7;;;-146.1;100.0
45864;BME280;31579;52.354;16.974;2023-02-28T04:45:12;56.3;;;-146.1;100.0
45864;BME280;31579;52.354;16.974;2023-02-28T04:46:15;55.5;;;-146.1;100.0
45864;BME280;31579;52.354;16.974;2023-02-28T04:47:18;55.8;;;-146.1;100.0
45864;BME280;31579;52.354;16.974;2023-02-28T04:48:21;56.8;;;-146.1;100.0
45864;BME280;31579;52.354;16.974;2023-02-28T04:49:24;57.1;;;-146.1;100.0
45864;BME280;31579;52.354;16.974;2023-02-28T04:50:27;57.4;;;-146.1;100.0
45864;BME280;31579;52.354;16.974;2023-02-28T04:51:31;57.2;;;-146.1;100.0
45864;BME280;31579;52.354;16.974;2023-02-28T04:52:34;57.2;;;-146.1;100.0
45864;BME280;31579;52.354;16.974;2023-02-28T04:53:37;57.7;;;-146.1;100.0
45864;BME280;31579;52.354;16.974;2023-02-28T04:54:40;58.6;;;-146.1;100.0
45864;BME280;31579;52.354;16.974;2023-02-28T04:55:43;59.5;;;-146.1;100.0
45864;BME280;31579;52.354;16.974;2023-02-28T04:56:46;60.4;;;-146.1;100.0
45864;BME280;31579;52.354;16.974;2023-02-28T04:57:49;61.1;;;-146.1;100.0
45864;BME280;31579;52.354;16.974;2023-02-28T04:58:52;61.8;;;-146.1;100.0
45864;BME280;31579;52.354;16.974;2023-02-28T04:59:55;62.3;;;-146.1;100.0
45864;BME280;31579;52.354;16.974;2023-02-28T05:02:03;24.9;;;-146.1;100.0
45864;BME280;31579;52.354;16.974;2023-02-28T05:03:05;67.9;;;-146.1;100.0
45864;BME280;31579;52.354;16.974;2023-02-28T05:04:09;72.0;;;-146.1;100.0
45864;BME280;31579;52.354;16.974;2023-02-28T05:05:12;71.1;;;-146.1;100.0
45864;BME280;31579;52.354;16.974;2023-02-28T05:06:15;70.0;;;-146.1;100.0
45864;BME280;31579;52.354;16.974;2023-02-28T05:07:18;70.1;;;-146.1;100.0
45864;BME280;31579;52.354;16.974;2023-02-28T05:08:21;69.8;;;-146.1;100.0
45864;BME280;31579;52.354;16.974;2023-02-28T05:09:24;69.9;;;-146.1;100.0
45864;BME280;31579;52.354;16.974;2023-02-28T05:10:27;70.8;;;-146.1;100.0
45864;BME280;31579;52.354;16.974;2023-02-28T05:11:31;71.6;;;-146.1;100.0
45864;BME280;31579;52.354;16.974;2023-02-28T05:12:33;72.2;;;-146.1;100.0
45864;BME280;31579;52.354;16.974;2023-02-28T05:13:36;73.0;;;-146.1;100.0
45864;BME280;31579;52.354;16.974;2023-02-28T05:14:39;74.0;;;-146.1;100.0
45864;BME280;31579;52.354;16.974;2023-02-28T05:15:42;75.0;;;-146.1;100.0
45864;BME280;31579;52.354;16.974;2023-02-28T05:16:45;76.5;;;-146.1;100.0
45864;BME280;31579;52.354;16.974;2023-02-28T05:17:48;77.4;;;-146.1;100.0
45864;BME280;31579;52.354;16.974;2023-02-28T05:18:52;78.4;;;-146.1;100.0
45864;BME280;31579;52.354;16.974;2023-02-28T05:19:55;79.4;;;-146.1;100.0
45864;BME280;31579;52.354;16.974;2023-02-28T05:20:58;81.3;;;-146.1;100.0
45864;BME280;31579;52.354;16.974;2023-02-28T05:22:02;40.9;;;-146.1;100.0
45864;BME280;31579;52.354;16.974;2023-02-28T05:23:05;88.7;;;-146.1;100.0
45864;BME280;31579;52.354;16.974;2023-02-28T05:24:10;92.2;;;-146.1;100.0
45864;BME280;31579;52.354;16.974;2023-02-28T05:25:12;91.0;;;-146.1;100.0
45864;BME280;31579;52.354;16.974;2023-02-28T05:26:15;90.1;;;-146.1;100.0
45864;BME280;31579;52.354;16.974;2023-02-28T05:27:18;90.0;;;-146.1;100.0
45864;BME280;31579;52.354;16.974;2023-02-28T05:28:21;90.8;;;-146.1;100.0
45864;BME280;31579;52.354;16.974;2023-02-28T05:29:24;91.7;;;-146.1;100.0
45864;BME280;31579;52.354;16.974;2023-02-28T05:30:28;91.8;;;-146.1;100.0
45864;BME280;31579;52.354;16.974;2023-02-28T05:31:45;49.2;;;-146.1;100.0
45864;BME280;31579;52.354;16.974;2023-02-28T05:32:49;116.5;;;-146.1;100.0
45864;BME280;31579;52.354;16.974;2023-02-28T05:33:51;111.4;;;-146.1;100.0
45864;BME280;31579;52.354;16.974;2023-02-28T05:34:54;106.1;;;-146.1;100.0
45864;BME280;31579;52.354;16.974;2023-02-28T05:35:57;102.8;;;-146.1;100.0
45864;BME280;31579;52.354;16.974;2023-02-28T05:37:01;58.9;;;-146.1;100.0
45864;BME280;31579;52.354;16.974;2023-02-28T05:38:04;109.4;;;-146.1;100.0
45864;BME280;31579;52.354;16.974;2023-02-28T05:39:07;106.7;;;-146.1;100.0
45864;BME280;31579;52.354;16.974;2023-02-28T05:40:10;104.7;;;-146.1;100.0
45864;BME280;31579;52.354;16.974;2023-02-28T05:41:13;103.9;;;-146.1;100.0
45864;BME280;31579;52.354;16.974;2023-02-28T05:42:16;103.6;;;-146.1;100.0
45864;BME280;31579;52.354;16.974;2023-02-28T05:43:19;103.8;;;-146.1;100.0
45864;BME280;31579;52.354;16.974;2023-02-28T05:44:22;104.3;;;-146.1;100.0
45864;BME280;31579;52.354;16.974;2023-02-28T05:45:25;105.3;;;-146.1;100.0
45864;BME280;31579;52.354;16.974;2023-02-28T05:46:28;106.5;;;-146.1;100.0
45864;BME280;31579;52.354;16.974;2023-02-28T05:47:31;107.6;;;-146.1;100.0
45864;BME280;31579;52.354;16.974;2023-02-28T05:48:34;109.0;;;-146.1;100.0
45864;BME280;31579;52.354;16.974;2023-02-28T05:49:37;110.2;;;-146.1;100.0
45864;BME280;31579;52.354;16.974;2023-02-28T05:50:40;107.1;;;-146.1;100.0
45864;BME280;31579;52.354;16.974;2023-02-28T05:51:43;118.0;;;-146.1;100.0
45864;BME280;31579;52.354;16.974;2023-02-28T05:53:49;114.9;;;-146.1;100.0
45864;BME280;31579;52.354;16.974;2023-02-28T05:54:52;116.6;;;-146.1;100.0
45864;BME280;31579;52.354;16.974;2023-02-28T05:55:55;118.6;;;-146.1;100.0
45864;BME280;31579;52.354;16.974;2023-02-28T05:56:58;120.3;;;-146.1;100.0
45864;BME280;31579;52.354;16.974;2023-02-28T05:58:00;164.9;;;-146.1;100.0
45864;BME280;31579;52.354;16.974;2023-02-28T05:59:04;114.4;;;-146.1;100.0
45864;BME280;31579;52.354;16.974;2023-02-28T06:00:08;119.1;;;-146.1;100.0
45864;BME280;31579;52.354;16.974;2023-02-28T06:02:14;127.2;;;-146.1;100.0
45864;BME280;31579;52.354;16.974;2023-02-28T06:03:16;130.4;;;-146.1;100.0
45864;BME280;31579;52.354;16.974;2023-02-28T06:04:20;132.9;;;-146.1;100.0
45864;BME280;31579;52.354;16.974;2023-02-28T06:05:22;134.9;;;-146.1;100.0
45864;BME280;31579;52.354;16.974;2023-02-28T06:06:25;137.3;;;-146.1;100.0
45864;BME280;31579;52.354;16.974;2023-02-28T06:07:28;139.3;;;-146.1;100.0
45864;BME280;31579;52.354;16.974;2023-02-28T06:08:31;141.4;;;-146.1;100.0
45864;BME280;31579;52.354;16.974;2023-02-28T06:09:34;143.2;;;-146.1;100.0
45864;BME280;31579;52.354;16.974;2023-02-28T06:10:37;145.5;;;-146.1;100.0
45864;BME280;31579;52.354;16.974;2023-02-28T06:11:41;98.9;;;-146.1;100.0
45864;BME280;31579;52.354;16.974;2023-02-28T06:12:44;159.0;;;-146.1;100.0
45864;BME280;31579;52.354;16.974;2023-02-28T06:13:47;157.7;;;-146.1;100.0
45864;BME280;31579;52.354;16.974;2023-02-28T06:14:50;156.4;;;-146.1;100.0
45864;BME280;31579;52.354;16.974;2023-02-28T06:15:53;156.5;;;-146.1;100.0
45864;BME280;31579;52.354;16.974;2023-02-28T06:16:56;156.9;;;-146.1;100.0
45864;BME280;31579;52.354;16.974;2023-02-28T06:17:59;158.7;;;-146.1;100.0
45864;BME280;31579;52.354;16.974;2023-02-28T06:19:03;161.0;;;-146.1;100.0
45864;BME280;31579;52.354;16.974;2023-02-28T06:20:06;164.1;;;-146.1;100.0
45864;BME280;31579;52.354;16.974;2023-02-28T06:21:08;168.6;;;-146.1;100.0
45864;BME280;31579;52.354;16.974;2023-02-28T06:22:11;171.2;;;-146.1;100.0
45864;BME280;31579;52.354;16.974;2023-02-28T06:23:14;171.5;;;-146.1;100.0
45864;BME280;31579;52.354;16.974;2023-02-28T06:24:18;175.4;;;-146.1;100.0
45864;BME280;31579;52.354;16.974;2023-02-28T06:25:20;178.6;;;-146.1;100.0
45864;BME280;31579;52.354;16.974;2023-02-28T06:26:23;181.4;;;-146.1;100.0
45864;BME280;31579;52.354;16.974;2023-02-28T06:27:26;183.6;;;-146.1;100.0
45864;BME280;31579;52.354;16.974;2023-02-28T06:29:39;200.8;;;-146.1;100.0
45864;BME280;31579;52.354;16.974;2023-02-28T06:30:42;197.3;;;-146.1;100.0
45864;BME280;31579;52.354;16.974;2023-02-28T06:31:46;194.3;;;-146.1;100.0
45864;BME280;31579;52.354;16.974;2023-02-28T06:32:49;193.5;;;-146.1;100.0